createdAt,value
2017-07-25T00:02:05.754Z,7.90
2017-07-25T00:04:33.415Z,7.70
2017-07-25T00:07:01.663Z,6.47
2017-07-25T00:09:29.218Z,6.60
2017-07-25T00:11:56.830Z,6.43
2017-07-25T00:14:24.390Z,7.50
2017-07-25T00:16:51.974Z,8.07
2017-07-25T00:19:19.566Z,6.63
2017-07-25T00:21:47.120Z,7.40
2017-07-25T00:24:14.678Z,7.90
2017-07-25T00:26:42.290Z,7.23
2017-07-25T00:29:09.854Z,6.70
2017-07-25T00:31:38.206Z,7.40
2017-07-25T00:34:08.161Z,8.00
2017-07-25T00:36:36.870Z,7.50
2017-07-25T00:39:04.728Z,7.30
2017-07-25T00:41:34.061Z,7.10
2017-07-25T00:44:02.650Z,7.47
2017-07-25T00:46:31.233Z,7.63
2017-07-25T00:49:01.648Z,8.10
2017-07-25T00:51:31.248Z,8.10
2017-07-25T00:53:59.729Z,7.97
2017-07-25T00:56:27.942Z,8.07
2017-07-25T00:58:57.197Z,7.60
2017-07-25T01:01:25.776Z,8.13
2017-07-25T01:03:54.664Z,8.67
2017-07-25T01:06:22.695Z,6.97
2017-07-25T01:08:50.262Z,7.50
2017-07-25T01:11:17.865Z,8.00
2017-07-25T01:13:45.454Z,8.10
2017-07-25T01:16:13.042Z,8.80
2017-07-25T01:18:41.382Z,9.53
2017-07-25T01:21:08.979Z,9.27
2017-07-25T01:23:36.570Z,9.03
2017-07-25T01:26:04.674Z,10.43
2017-07-25T01:28:32.239Z,10.00
2017-07-25T01:30:59.849Z,9.93
2017-07-25T01:33:27.681Z,9.53
2017-07-25T01:35:55.283Z,10.33
2017-07-25T01:38:22.862Z,8.70
2017-07-25T01:40:50.470Z,10.30
2017-07-25T01:43:20.003Z,10.47
2017-07-25T01:45:47.610Z,10.23
2017-07-25T01:48:15.242Z,11.57
2017-07-25T01:50:42.854Z,10.30
2017-07-25T01:53:10.448Z,9.97
2017-07-25T01:55:38.102Z,11.07
2017-07-25T01:58:05.987Z,10.93
2017-07-25T02:00:33.650Z,9.80
2017-07-25T02:03:01.354Z,10.17
2017-07-25T02:05:28.971Z,10.30
2017-07-25T02:07:56.742Z,10.70
2017-07-25T02:10:24.329Z,9.70
2017-07-25T02:12:52.697Z,9.87
2017-07-25T02:15:21.185Z,11.20
2017-07-25T02:17:49.558Z,9.73
2017-07-25T02:20:17.122Z,9.63
2017-07-25T02:22:44.726Z,9.90
2017-07-25T02:25:13.081Z,9.47
2017-07-25T02:27:41.433Z,9.33
2017-07-25T02:30:09.022Z,9.60
2017-07-25T02:32:36.629Z,9.60
2017-07-25T02:35:04.193Z,9.70
2017-07-25T02:37:31.758Z,9.13
2017-07-25T02:39:59.346Z,9.37
2017-07-25T02:42:26.911Z,9.50
2017-07-25T02:44:54.503Z,9.00
2017-07-25T02:47:22.122Z,10.50
2017-07-25T02:49:49.699Z,8.87
2017-07-25T02:52:18.050Z,9.87
2017-07-25T02:54:45.675Z,8.10
2017-07-25T02:57:13.266Z,9.73
2017-07-25T02:59:40.860Z,9.63
2017-07-25T03:02:08.462Z,10.47
2017-07-25T03:04:36.054Z,9.63
2017-07-25T03:07:03.653Z,9.63
2017-07-25T03:09:31.274Z,9.13
2017-07-25T03:11:59.334Z,8.60
2017-07-25T03:14:26.910Z,9.37
2017-07-25T03:16:54.502Z,8.60
2017-07-25T03:19:22.093Z,9.40
2017-07-25T03:21:49.691Z,8.27
2017-07-25T03:24:18.086Z,7.50
2017-07-25T03:26:45.658Z,9.40
2017-07-25T03:29:13.258Z,8.83
2017-07-25T03:31:40.858Z,8.07
2017-07-25T03:34:08.455Z,8.63
2017-07-25T03:36:36.026Z,8.60
2017-07-25T03:39:03.690Z,7.07
2017-07-25T03:41:31.249Z,7.60
2017-07-25T03:43:58.806Z,6.80
2017-07-25T03:46:26.762Z,6.93
2017-07-25T03:48:54.351Z,5.70
2017-07-25T03:51:21.950Z,6.13
2017-07-25T03:53:50.326Z,5.50
2017-07-25T03:56:18.670Z,5.87
2017-07-25T03:58:46.238Z,6.40
2017-07-25T04:01:13.850Z,5.50
2017-07-25T04:03:41.418Z,6.57
2017-07-25T04:06:08.990Z,5.80
2017-07-25T04:08:36.578Z,5.90
2017-07-25T04:11:04.138Z,4.80
2017-07-25T04:13:31.866Z,4.77
2017-07-25T04:15:59.450Z,5.30
2017-07-25T04:18:27.011Z,5.13
2017-07-25T04:20:54.782Z,5.23
2017-07-25T04:23:22.399Z,5.27
2017-07-25T04:25:50.718Z,5.00
2017-07-25T04:28:18.281Z,5.43
2017-07-25T04:30:45.911Z,5.10
2017-07-25T04:33:13.815Z,4.97
2017-07-25T04:35:41.386Z,5.00
2017-07-25T04:38:08.978Z,5.37
2017-07-25T04:40:36.533Z,4.40
2017-07-25T04:43:04.123Z,5.70
2017-07-25T04:45:31.714Z,4.97
2017-07-25T04:47:59.278Z,5.28
2017-07-25T04:50:26.851Z,5.30
2017-07-25T04:52:54.438Z,4.90
2017-07-25T04:55:22.026Z,5.73
2017-07-25T04:57:49.591Z,5.00
2017-07-25T05:00:17.933Z,5.87
2017-07-25T05:02:45.523Z,5.43
2017-07-25T05:05:13.119Z,5.90
2017-07-25T05:07:41.482Z,6.47
2017-07-25T05:10:09.069Z,5.93
2017-07-25T05:12:36.637Z,6.10
2017-07-25T05:15:04.254Z,5.80
2017-07-25T05:17:31.886Z,6.10
2017-07-25T05:19:59.522Z,29.80
2017-07-25T05:22:27.126Z,11.63
2017-07-25T05:24:54.686Z,7.47
2017-07-25T05:27:22.250Z,7.60
2017-07-25T05:29:49.843Z,6.20
2017-07-25T05:32:17.430Z,6.10
2017-07-25T05:34:45.002Z,7.07
2017-07-25T05:37:12.600Z,5.87
2017-07-25T05:39:40.191Z,6.30
2017-07-25T05:42:07.762Z,6.17
2017-07-25T05:44:35.379Z,5.93
2017-07-25T05:47:02.969Z,6.10
2017-07-25T05:49:30.561Z,5.73
2017-07-25T05:51:58.178Z,5.60
2017-07-25T05:54:25.745Z,6.33
2017-07-25T05:56:53.306Z,6.60
2017-07-25T05:59:20.922Z,6.00
2017-07-25T06:01:48.482Z,5.57
2017-07-25T06:04:16.077Z,6.50
2017-07-25T06:06:43.698Z,5.30
2017-07-25T06:09:11.282Z,5.60
2017-07-25T06:11:38.846Z,6.00
2017-07-25T06:14:06.469Z,6.60
2017-07-25T06:16:34.033Z,6.03
2017-07-25T06:19:01.622Z,6.23
2017-07-25T06:21:29.215Z,6.40
2017-07-25T06:23:56.802Z,6.00
2017-07-25T06:26:24.395Z,6.63
2017-07-25T06:28:52.772Z,5.93
2017-07-25T06:31:21.394Z,6.03
2017-07-25T06:33:48.984Z,6.00
2017-07-25T06:36:16.602Z,5.80
2017-07-25T06:38:44.190Z,6.13
2017-07-25T06:41:11.786Z,5.47
2017-07-25T06:43:39.383Z,6.00
2017-07-25T06:46:07.774Z,6.47
2017-07-25T06:48:35.465Z,5.80
2017-07-25T06:51:03.078Z,6.30
2017-07-25T06:53:31.430Z,6.27
2017-07-25T06:55:59.018Z,6.67
2017-07-25T06:58:27.370Z,7.57
2017-07-25T07:00:54.959Z,6.83
2017-07-25T07:03:22.518Z,6.90
2017-07-25T07:05:51.141Z,6.07
2017-07-25T07:08:18.739Z,5.73
2017-07-25T07:10:46.310Z,5.70
2017-07-25T07:13:13.902Z,4.97
2017-07-25T07:15:41.486Z,5.40
2017-07-25T07:18:09.094Z,5.50
2017-07-25T07:20:38.061Z,5.20
2017-07-25T07:23:05.621Z,5.07
2017-07-25T07:25:33.210Z,4.70
2017-07-25T07:28:00.826Z,5.50
2017-07-25T07:30:28.390Z,3.93
2017-07-25T07:32:55.950Z,4.13
2017-07-25T07:35:23.570Z,3.87
2017-07-25T07:37:51.174Z,3.50
2017-07-25T07:40:18.733Z,4.00
2017-07-25T07:42:46.626Z,3.90
2017-07-25T07:45:15.350Z,4.60
2017-07-25T07:47:42.943Z,4.60
2017-07-25T07:50:10.558Z,4.80
2017-07-25T07:52:38.142Z,5.70
2017-07-25T07:55:05.726Z,5.93
2017-07-25T07:57:33.386Z,6.40
2017-07-25T08:00:00.978Z,5.30
2017-07-25T08:02:29.910Z,5.30
2017-07-25T08:04:57.526Z,5.90
2017-07-25T08:07:25.118Z,5.57
2017-07-25T08:09:52.695Z,5.00
2017-07-25T08:12:20.306Z,5.20
2017-07-25T08:14:48.658Z,4.73
2017-07-25T08:17:16.251Z,6.60
2017-07-25T08:19:43.847Z,4.10
2017-07-25T08:22:12.141Z,4.30
2017-07-25T08:24:39.742Z,3.87
2017-07-25T08:27:07.344Z,3.80
2017-07-25T08:29:34.930Z,3.60
2017-07-25T08:32:02.491Z,4.67
2017-07-25T08:34:30.335Z,3.37
2017-07-25T08:36:57.910Z,3.23
2017-07-25T08:39:25.474Z,2.67
2017-07-25T08:41:53.377Z,2.87
2017-07-25T08:44:20.981Z,2.50
2017-07-25T08:46:48.775Z,2.67
2017-07-25T08:49:17.295Z,2.33
2017-07-25T08:51:44.862Z,2.30
2017-07-25T08:54:12.654Z,2.53
2017-07-25T08:56:40.290Z,2.40
2017-07-25T08:59:07.878Z,1.90
2017-07-25T09:01:35.492Z,1.77
2017-07-25T09:04:03.112Z,1.87
2017-07-25T09:06:30.686Z,2.20
2017-07-25T09:08:58.274Z,2.00
2017-07-25T09:11:26.328Z,1.80
2017-07-25T09:13:53.926Z,2.03
2017-07-25T09:16:21.522Z,2.20
2017-07-25T09:18:49.138Z,2.10
2017-07-25T09:21:16.743Z,2.03
2017-07-25T09:23:52.771Z,3.00
2017-07-25T09:26:20.354Z,1.90
2017-07-25T09:28:47.947Z,2.57
2017-07-25T09:31:15.582Z,1.93
2017-07-25T09:33:43.162Z,2.30
2017-07-25T09:36:10.788Z,1.90
2017-07-25T09:38:38.394Z,2.07
2017-07-25T09:41:05.950Z,3.20
2017-07-25T09:43:33.587Z,3.33
2017-07-25T09:46:01.178Z,3.33
2017-07-25T09:48:29.501Z,2.90
2017-07-25T09:50:57.086Z,3.67
2017-07-25T09:53:24.711Z,4.00
2017-07-25T09:55:52.278Z,3.70
2017-07-25T09:58:20.374Z,3.27
2017-07-25T10:00:48.034Z,3.70
2017-07-25T10:03:15.626Z,3.20
2017-07-25T10:05:43.214Z,3.33
2017-07-25T10:08:11.229Z,3.13
2017-07-25T10:10:38.815Z,3.67
2017-07-25T10:13:06.410Z,3.50
2017-07-25T10:15:34.002Z,3.70
2017-07-25T10:18:01.567Z,2.93
2017-07-25T10:20:29.722Z,3.93
2017-07-25T10:22:57.319Z,3.80
2017-07-25T10:25:24.881Z,3.77
2017-07-25T10:27:52.444Z,3.67
2017-07-25T10:30:20.034Z,3.47
2017-07-25T10:32:47.601Z,3.20
2017-07-25T10:35:15.166Z,4.10
2017-07-25T10:37:42.778Z,3.53
2017-07-25T10:40:11.110Z,3.97
2017-07-25T10:42:38.678Z,3.90
2017-07-25T10:45:07.191Z,4.37
2017-07-25T10:47:35.523Z,4.27
